CDT,Max TemperatureF,Mean TemperatureF,Min TemperatureF,Max Dew PointF,MeanDew PointF,Min DewpointF,Max Humidity, Mean Humidity, Min Humidity, Max Sea Level PressureIn, Mean Sea Level PressureIn, Min Sea Level PressureIn, Max VisibilityMiles, Mean VisibilityMiles, Min VisibilityMiles, Max Wind SpeedMPH, Mean Wind SpeedMPH, Max Gust SpeedMPH,PrecipitationIn, CloudCover, Events, WindDirDegrees
2013-7-1,84,76,67,63,61,58,87,66,44,29.95,29.90,29.84,10,10,10,15,7,22,0.01,4,Rain,353
2013-7-2,84,74,64,62,60,58,84,68,51,30.05,29.98,29.93,10,10,10,13,6,18,0.00,3,,326
2013-7-3,86,72,58,61,58,53,90,62,34,30.12,30.06,30.02,10,10,7,13,4,18,0.00,0,,57
2013-7-4,91,77,62,69,61,57,93,64,34,30.06,30.01,29.95,10,10,10,10,4,24,0.00,1,,48
2013-7-5,88,78,68,70,67,63,93,72,51,30.06,30.01,29.96,10,10,9,17,5,23,0.00,1,Thunderstorm,89
2013-7-6,90,78,66,70,67,64,93,70,46,30.06,30.02,29.96,10,10,10,16,3,25,0.00,3,,123
2013-7-7,93,81,68,72,69,67,93,69,44,30.07,30.04,30.00,10,10,6,14,5,22,0.00,0,,142
2013-7-8,97,84,70,74,71,66,93,67,41,30.12,30.08,30.04,10,10,10,14,4,16,0.00,1,,173
2013-7-9,98,86,74,74,73,71,93,69,45,30.10,30.04,29.97,10,10,10,16,7,21,0.00,0,,198
2013-7-10,98,87,75,75,71,68,74,58,42,30.02,29.95,29.87,10,9,2,18,6,23,0.24,4,Rain-Thunderstorm,227
2013-7-11,95,84,72,75,68,62,94,64,34,29.98,29.95,29.92,10,10,8,17,7,28,0.00,1,,39
2013-7-12,90,78,66,61,59,54,78,54,29,30.06,30.01,29.98,10,10,10,20,8,24,0.00,0,,39
2013-7-13,89,77,64,63,59,56,84,58,32,30.05,30.01,29.97,10,10,10,16,6,23,0.00,0,,51
2013-7-14,90,79,68,71,67,60,87,67,47,30.07,30.03,29.98,10,10,10,22,8,29,0.00,1,,71
2013-7-15,90,81,72,74,72,70,93,75,56,30.19,30.14,30.07,10,10,6,22,7,28,T,4,Rain-Thunderstorm,97
2013-7-16,94,84,73,73,71,68,93,70,46,30.26,30.22,30.18,10,10,10,14,6,21,0.00,1,,90
2013-7-17,96,84,72,73,71,68,93,68,43,30.30,30.24,30.16,10,10,10,9,2,13,0.00,0,,82
2013-7-18,97,85,72,75,71,66,93,70,46,30.19,30.10,30.04,10,10,7,23,4,30,0.05,1,Rain-Thunderstorm,60
2013-7-19,91,81,71,72,71,69,100,75,49,30.07,30.02,29.93,10,7,0,12,5,15,0.00,3,Fog,175
2013-7-20,95,85,75,72,71,68,87,68,49,29.95,29.91,29.83,10,10,10,16,8,24,T,2,Rain-Thunderstorm,224
2013-7-21,94,84,73,74,72,71,93,73,52,29.95,29.90,29.86,10,10,2,18,5,26,0.16,3,Rain-Thunderstorm,194
2013-7-22,92,84,76,75,72,66,94,69,44,29.90,29.87,29.83,10,10,5,20,7,28,0.08,4,Rain-Thunderstorm,240
2013-7-23,91,81,70,77,71,66,94,72,50,30.03,29.90,29.81,10,7,1,28,8,35,1.99,5,Rain-Thunderstorm,228
2013-7-24,86,78,70,72,70,64,93,77,61,29.98,29.92,29.86,10,10,10,15,5,23,0.01,3,Rain-Thunderstorm,355
2013-7-25,83,74,64,65,60,57,93,68,43,30.09,30.05,29.99,10,10,10,14,5,20,0.00,0,,24
2013-7-26,83,72,61,69,64,59,93,72,51,30.07,30.04,29.96,10,10,10,7,2,13,T,3,Rain,287
2013-7-27,87,78,69,68,64,58,90,69,48,30.00,29.96,29.90,10,10,10,12,5,33,0.00,3,,341
2013-7-28,78,71,64,64,60,55,84,65,45,30.06,30.03,29.96,10,10,10,9,5,13,0.00,2,,65
2013-7-29,85,76,67,69,65,62,87,69,51,30.15,30.10,30.07,10,10,10,12,6,18,0.00,2,,88
2013-7-30,82,77,71,75,72,68,94,87,79,30.13,30.07,30.00,10,8,1,13,5,21,0.73,6,Rain-Thunderstorm,162
2013-7-31,92,84,76,78,76,74,97,81,64,30.03,29.98,29.93,10,9,2,16,4,24,0.12,5,Rain-Thunderstorm,241